sensor_id;sensor_type;location;lat;lon;timestamp;pressure;altitude;pressure_sealevel;temperature;humidity
62926;BME280;55732;52.248;-0.844;2023-04-02T00:11:49;101081.91;;;6.93;88.11
62926;BME280;55732;52.248;-0.844;2023-04-02T00:14:29;101089.45;;;6.93;88.25
62926;BME280;55732;52.248;-0.844;2023-04-02T00:16:57;101087.56;;;6.95;88.28
62926;BME280;55732;52.248;-0.844;2023-04-02T00:21:56;101095.70;;;7.00;88.34
62926;BME280;55732;52.248;-0.844;2023-04-02T00:24:23;101097.48;;;7.01;88.41
62926;BME280;55732;52.248;-0.844;2023-04-02T00:26:50;101092.64;;;7.03;88.47
62926;BME280;55732;52.248;-0.844;2023-04-02T00:29:17;101095.64;;;7.04;88.38
62926;BME280;55732;52.248;-0.844;2023-04-02T00:32:01;101094.62;;;7.05;88.21
62926;BME280;55732;52.248;-0.844;2023-04-02T00:34:31;101097.27;;;7.06;88.02
62926;BME280;55732;52.248;-0.844;2023-04-02T00:36:58;101098.99;;;7.05;88.10
62926;BME280;55732;52.248;-0.844;2023-04-02T00:39:25;101099.17;;;7.06;88.19
62926;BME280;55732;52.248;-0.844;2023-04-02T00:41:54;101110.05;;;7.07;88.21
62926;BME280;55732;52.248;-0.844;2023-04-02T00:44:41;101113.86;;;7.05;88.12
62926;BME280;55732;52.248;-0.844;2023-04-02T00:47:32;101113.65;;;7.03;88.33
62926;BME280;55732;52.248;-0.844;2023-04-02T00:50:04;101121.19;;;7.04;88.41
62926;BME280;55732;52.248;-0.844;2023-04-02T00:52:31;101126.29;;;7.04;88.43
62926;BME280;55732;52.248;-0.844;2023-04-02T00:55:07;101130.84;;;7.05;88.45
62926;BME280;55732;52.248;-0.844;2023-04-02T00:57:40;101133.80;;;7.04;88.52
62926;BME280;55732;52.248;-0.844;2023-04-02T01:00:23;101140.23;;;7.02;88.41
62926;BME280;55732;52.248;-0.844;2023-04-02T01:05:41;101155.79;;;7.01;88.63
62926;BME280;55732;52.248;-0.844;2023-04-02T01:11:01;101162.33;;;7.04;88.41
62926;BME280;55732;52.248;-0.844;2023-04-02T01:16:54;101166.27;;;7.07;88.12
62926;BME280;55732;52.248;-0.844;2023-04-02T01:22:19;101167.65;;;7.06;87.70
62926;BME280;55732;52.248;-0.844;2023-04-02T01:24:47;101172.23;;;7.07;87.91
62926;BME280;55732;52.248;-0.844;2023-04-02T01:27:19;101168.91;;;7.08;87.74
62926;BME280;55732;52.248;-0.844;2023-04-02T01:29:53;101174.18;;;7.10;87.78
62926;BME280;55732;52.248;-0.844;2023-04-02T01:32:22;101178.03;;;7.10;87.56
62926;BME280;55732;52.248;-0.844;2023-04-02T01:34:50;101180.30;;;7.10;87.58
62926;BME280;55732;52.248;-0.844;2023-04-02T01:45:14;101194.95;;;7.05;87.40
62926;BME280;55732;52.248;-0.844;2023-04-02T01:47:42;101197.71;;;7.04;87.53
62926;BME280;55732;52.248;-0.844;2023-04-02T01:50:56;101195.92;;;7.03;87.42
62926;BME280;55732;52.248;-0.844;2023-04-02T01:52:59;101197.48;;;7.02;87.16
62926;BME280;55732;52.248;-0.844;2023-04-02T01:58:00;101205.83;;;7.00;87.18
62926;BME280;55732;52.248;-0.844;2023-04-02T02:00:27;101203.68;;;6.98;87.25
62926;BME280;55732;52.248;-0.844;2023-04-02T02:02:54;101205.59;;;6.98;87.11
62926;BME280;55732;52.248;-0.844;2023-04-02T02:05:22;101207.86;;;6.97;87.19
62926;BME280;55732;52.248;-0.844;2023-04-02T02:07:49;101207.50;;;6.96;87.19
62926;BME280;55732;52.248;-0.844;2023-04-02T02:10:20;101210.65;;;6.97;87.11
62926;BME280;55732;52.248;-0.844;2023-04-02T02:12:47;101215.91;;;6.97;87.19
62926;BME280;55732;52.248;-0.844;2023-04-02T02:15:15;101215.02;;;6.96;87.05
62926;BME280;55732;52.248;-0.844;2023-04-02T02:17:41;101219.52;;;6.94;87.17
62926;BME280;55732;52.248;-0.844;2023-04-02T02:20:08;101222.55;;;6.89;87.15
62926;BME280;55732;52.248;-0.844;2023-04-02T02:22:37;101226.13;;;6.85;87.16
62926;BME280;55732;52.248;-0.844;2023-04-02T02:28:23;101236.04;;;6.82;87.43
62926;BME280;55732;52.248;-0.844;2023-04-02T02:30:56;101235.48;;;6.81;87.46
62926;BME280;55732;52.248;-0.844;2023-04-02T02:33:27;101240.04;;;6.80;87.60
62926;BME280;55732;52.248;-0.844;2023-04-02T02:39:03;101248.21;;;6.78;87.66
62926;BME280;55732;52.248;-0.844;2023-04-02T02:41:38;101247.29;;;6.77;87.87
62926;BME280;55732;52.248;-0.844;2023-04-02T02:46:34;101256.83;;;6.74;88.27
62926;BME280;55732;52.248;-0.844;2023-04-02T02:49:02;101261.36;;;6.73;88.32
62926;BME280;55732;52.248;-0.844;2023-04-02T02:51:39;101263.09;;;6.72;88.44
62926;BME280;55732;52.248;-0.844;2023-04-02T02:54:06;101264.09;;;6.70;88.68
62926;BME280;55732;52.248;-0.844;2023-04-02T02:56:35;101265.42;;;6.67;88.84
62926;BME280;55732;52.248;-0.844;2023-04-02T02:59:05;101267.28;;;6.65;88.84
62926;BME280;55732;52.248;-0.844;2023-04-02T03:01:32;101272.01;;;6.65;88.87
62926;BME280;55732;52.248;-0.844;2023-04-02T03:03:58;101282.88;;;6.66;88.87
62926;BME280;55732;52.248;-0.844;2023-04-02T03:06:24;101282.71;;;6.66;88.79
62926;BME280;55732;52.248;-0.844;2023-04-02T03:14:39;101291.95;;;6.65;88.59
62926;BME280;55732;52.248;-0.844;2023-04-02T03:17:19;101293.86;;;6.64;88.65
62926;BME280;55732;52.248;-0.844;2023-04-02T03:22:59;101298.09;;;6.65;88.61
62926;BME280;55732;52.248;-0.844;2023-04-02T03:25:38;101305.59;;;6.65;88.52
62926;BME280;55732;52.248;-0.844;2023-04-02T03:28:12;101307.67;;;6.64;88.66
62926;BME280;55732;52.248;-0.844;2023-04-02T03:31:15;101306.48;;;6.65;88.74
62926;BME280;55732;52.248;-0.844;2023-04-02T03:33:36;101311.10;;;6.67;88.65
62926;BME280;55732;52.248;-0.844;2023-04-02T03:41:46;101325.89;;;6.65;88.19
62926;BME280;55732;52.248;-0.844;2023-04-02T03:44:20;101331.25;;;6.62;88.19
62926;BME280;55732;52.248;-0.844;2023-04-02T03:46:52;101332.94;;;6.60;88.02
62926;BME280;55732;52.248;-0.844;2023-04-02T03:54:25;101351.56;;;6.56;87.80
62926;BME280;55732;52.248;-0.844;2023-04-02T03:56:51;101363.98;;;6.56;87.78
62926;BME280;55732;52.248;-0.844;2023-04-02T04:02:06;101367.77;;;6.54;87.83
62926;BME280;55732;52.248;-0.844;2023-04-02T04:04:39;101373.73;;;6.55;87.94
62926;BME280;55732;52.248;-0.844;2023-04-02T04:07:10;101379.88;;;6.56;87.94
62926;BME280;55732;52.248;-0.844;2023-04-02T04:09:40;101382.38;;;6.57;87.80
62926;BME280;55732;52.248;-0.844;2023-04-02T04:14:52;101394.63;;;6.57;87.31
62926;BME280;55732;52.248;-0.844;2023-04-02T04:17:32;101390.92;;;6.56;87.17
62926;BME280;55732;52.248;-0.844;2023-04-02T04:20:19;101393.36;;;6.55;87.07
62926;BME280;55732;52.248;-0.844;2023-04-02T04:22:49;101394.90;;;6.54;86.95
62926;BME280;55732;52.248;-0.844;2023-04-02T04:25:28;101397.64;;;6.52;86.81
62926;BME280;55732;52.248;-0.844;2023-04-02T04:28:12;101400.05;;;6.50;87.06
62926;BME280;55732;52.248;-0.844;2023-04-02T04:30:50;101404.08;;;6.50;86.96
62926;BME280;55732;52.248;-0.844;2023-04-02T04:33:30;101403.35;;;6.50;86.72
62926;BME280;55732;52.248;-0.844;2023-04-02T04:36:00;101402.27;;;6.47;86.89
62926;BME280;55732;52.248;-0.844;2023-04-02T04:38:34;101409.62;;;6.48;87.05
62926;BME280;55732;52.248;-0.844;2023-04-02T04:41:10;101416.10;;;6.49;86.90
62926;BME280;55732;52.248;-0.844;2023-04-02T04:44:00;101422.74;;;6.49;86.92
62926;BME280;55732;52.248;-0.844;2023-04-02T04:46:57;101425.88;;;6.48;86.93
62926;BME280;55732;52.248;-0.844;2023-04-02T04:52:28;101427.64;;;6.48;87.22
62926;BME280;55732;52.248;-0.844;2023-04-02T04:54:57;101433.41;;;6.49;87.18
62926;BME280;55732;52.248;-0.844;2023-04-02T04:57:34;101441.30;;;6.50;87.11
62926;BME280;55732;52.248;-0.844;2023-04-02T05:00:05;101444.52;;;6.52;87.00
62926;BME280;55732;52.248;-0.844;2023-04-02T05:03:06;101447.30;;;6.51;86.83
62926;BME280;55732;52.248;-0.844;2023-04-02T05:05:37;101456.18;;;6.50;86.76
62926;BME280;55732;52.248;-0.844;2023-04-02T05:08:29;101466.68;;;6.50;86.83
62926;BME280;55732;52.248;-0.844;2023-04-02T05:11:01;101471.25;;;6.51;86.67
62926;BME280;55732;52.248;-0.844;2023-04-02T05:13:43;101475.80;;;6.51;86.86
62926;BME280;55732;52.248;-0.844;2023-04-02T05:16:20;101486.60;;;6.49;86.95
62926;BME280;55732;52.248;-0.844;2023-04-02T05:19:10;101492.92;;;6.44;87.26
62926;BME280;55732;52.248;-0.844;2023-04-02T05:21:49;101488.99;;;6.36;87.44
62926;BME280;55732;52.248;-0.844;2023-04-02T05:24:40;101497.33;;;6.28;87.71
62926;BME280;55732;52.248;-0.844;2023-04-02T05:29:52;101503.58;;;6.15;87.91
62926;BME280;55732;52.248;-0.844;2023-04-02T05:32:25;101509.55;;;6.10;88.00
62926;BME280;55732;52.248;-0.844;2023-04-02T05:34:54;101508.58;;;6.02;87.48
62926;BME280;55732;52.248;-0.844;2023-04-02T05:37:25;101508.31;;;5.94;87.29
62926;BME280;55732;52.248;-0.844;2023-04-02T05:39:56;101510.89;;;5.88;87.36
62926;BME280;55732;52.248;-0.844;2023-04-02T05:42:28;101514.17;;;5.87;87.37
62926;BME280;55732;52.248;-0.844;2023-04-02T05:47:39;101522.89;;;5.86;87.09
62926;BME280;55732;52.248;-0.844;2023-04-02T05:53:39;101525.17;;;5.87;86.68
62926;BME280;55732;52.248;-0.844;2023-04-02T05:58:30;101539.58;;;5.84;86.11
62926;BME280;55732;52.248;-0.844;2023-04-02T06:00:59;101544.95;;;5.82;85.81
62926;BME280;55732;52.248;-0.844;2023-04-02T06:03:36;101553.14;;;5.82;85.17
62926;BME280;55732;52.248;-0.844;2023-04-02T06:06:13;101556.65;;;5.82;85.05
62926;BME280;55732;52.248;-0.844;2023-04-02T06:08:49;101565.73;;;5.82;84.15
62926;BME280;55732;52.248;-0.844;2023-04-02T06:11:20;101569.78;;;5.83;83.79
62926;BME280;55732;52.248;-0.844;2023-04-02T06:13:47;101578.89;;;5.84;83.50
62926;BME280;55732;52.248;-0.844;2023-04-02T06:16:14;101578.34;;;5.83;83.31
62926;BME280;55732;52.248;-0.844;2023-04-02T06:18:42;101580.99;;;5.84;83.23
62926;BME280;55732;52.248;-0.844;2023-04-02T06:21:11;101587.50;;;5.85;82.73
62926;BME280;55732;52.248;-0.844;2023-04-02T06:23:46;101590.79;;;5.84;82.57
62926;BME280;55732;52.248;-0.844;2023-04-02T06:26:34;101592.23;;;5.85;82.67
62926;BME280;55732;52.248;-0.844;2023-04-02T06:29:12;101597.73;;;5.87;82.52
62926;BME280;55732;52.248;-0.844;2023-04-02T06:34:20;101609.22;;;5.90;81.24
62926;BME280;55732;52.248;-0.844;2023-04-02T06:36:47;101612.39;;;5.91;81.34
62926;BME280;55732;52.248;-0.844;2023-04-02T06:39:22;101613.55;;;5.95;81.50
62926;BME280;55732;52.248;-0.844;2023-04-02T06:42:02;101614.73;;;5.97;80.96
62926;BME280;55732;52.248;-0.844;2023-04-02T06:44:33;101616.21;;;6.01;80.96
62926;BME280;55732;52.248;-0.844;2023-04-02T06:50:25;101619.83;;;6.09;80.46
62926;BME280;55732;52.248;-0.844;2023-04-02T06:52:57;101620.95;;;6.11;79.92
62926;BME280;55732;52.248;-0.844;2023-04-02T06:55:30;101623.82;;;6.13;80.38
62926;BME280;55732;52.248;-0.844;2023-04-02T06:57:57;101631.80;;;6.17;80.01
62926;BME280;55732;52.248;-0.844;2023-04-02T07:00:27;101628.38;;;6.19;79.27
62926;BME280;55732;52.248;-0.844;2023-04-02T07:02:59;101630.38;;;6.22;79.20
62926;BME280;55732;52.248;-0.844;2023-04-02T07:05:26;101636.41;;;6.24;79.24
62926;BME280;55732;52.248;-0.844;2023-04-02T07:07:51;101640.36;;;6.27;79.11
62926;BME280;55732;52.248;-0.844;2023-04-02T07:10:16;101639.76;;;6.30;78.89
62926;BME280;55732;52.248;-0.844;2023-04-02T07:12:45;101642.32;;;6.33;79.06
62926;BME280;55732;52.248;-0.844;2023-04-02T07:15:15;101647.02;;;6.38;78.85
62926;BME280;55732;52.248;-0.844;2023-04-02T07:17:40;101656.27;;;6.43;78.65
62926;BME280;55732;52.248;-0.844;2023-04-02T07:20:26;101661.66;;;6.47;78.32
62926;BME280;55732;52.248;-0.844;2023-04-02T07:22:53;101664.04;;;6.50;78.38
62926;BME280;55732;52.248;-0.844;2023-04-02T07:25:18;101665.79;;;6.56;78.37
62926;BME280;55732;52.248;-0.844;2023-04-02T07:27:44;101665.89;;;6.59;77.37
62926;BME280;55732;52.248;-0.844;2023-04-02T07:30:09;101664.06;;;6.62;78.06
62926;BME280;55732;52.248;-0.844;2023-04-02T07:32:35;101667.90;;;6.67;77.81
62926;BME280;55732;52.248;-0.844;2023-04-02T07:35:03;101676.63;;;6.71;77.07
62926;BME280;55732;52.248;-0.844;2023-04-02T07:37:29;101683.49;;;6.73;77.04
62926;BME280;55732;52.248;-0.844;2023-04-02T07:39:55;101690.29;;;6.78;77.23
62926;BME280;55732;52.248;-0.844;2023-04-02T07:42:21;101692.34;;;6.81;77.00
62926;BME280;55732;52.248;-0.844;2023-04-02T07:44:46;101700.36;;;6.86;76.87
62926;BME280;55732;52.248;-0.844;2023-04-02T07:47:11;101700.36;;;6.91;76.44
62926;BME280;55732;52.248;-0.844;2023-04-02T07:49:37;101700.98;;;6.94;76.59
62926;BME280;55732;52.248;-0.844;2023-04-02T07:52:02;101707.14;;;7.01;76.41
62926;BME280;55732;52.248;-0.844;2023-04-02T07:54:28;101709.22;;;7.05;76.31
62926;BME280;55732;52.248;-0.844;2023-04-02T07:56:54;101714.61;;;7.10;76.02
62926;BME280;55732;52.248;-0.844;2023-04-02T07:59:20;101715.35;;;7.12;75.56
62926;BME280;55732;52.248;-0.844;2023-04-02T08:01:46;101719.16;;;7.15;75.55
62926;BME280;55732;52.248;-0.844;2023-04-02T08:04:20;101725.27;;;7.21;75.23
62926;BME280;55732;52.248;-0.844;2023-04-02T08:06:46;101727.98;;;7.24;74.60
62926;BME280;55732;52.248;-0.844;2023-04-02T08:09:13;101731.39;;;7.26;74.80
62926;BME280;55732;52.248;-0.844;2023-04-02T08:11:39;101734.28;;;7.29;74.64
62926;BME280;55732;52.248;-0.844;2023-04-02T08:14:09;101735.27;;;7.33;73.92
62926;BME280;55732;52.248;-0.844;2023-04-02T08:16:50;101735.08;;;7.38;73.95
62926;BME280;55732;52.248;-0.844;2023-04-02T08:19:16;101740.61;;;7.47;74.25
62926;BME280;55732;52.248;-0.844;2023-04-02T08:21:42;101741.51;;;7.53;72.94
62926;BME280;55732;52.248;-0.844;2023-04-02T08:24:07;101746.34;;;7.57;72.88
62926;BME280;55732;52.248;-0.844;2023-04-02T08:26:33;101748.09;;;7.62;71.43
62926;BME280;55732;52.248;-0.844;2023-04-02T08:28:58;101751.55;;;7.73;71.55
62926;BME280;55732;52.248;-0.844;2023-04-02T08:31:24;101754.61;;;7.88;71.20
62926;BME280;55732;52.248;-0.844;2023-04-02T08:33:49;101749.00;;;7.94;70.42
62926;BME280;55732;52.248;-0.844;2023-04-02T08:36:18;101759.17;;;8.07;70.65
62926;BME280;55732;52.248;-0.844;2023-04-02T08:38:48;101759.72;;;8.20;69.99
62926;BME280;55732;52.248;-0.844;2023-04-02T08:41:25;101768.52;;;8.33;68.17
62926;BME280;55732;52.248;-0.844;2023-04-02T08:46:47;101774.05;;;8.56;67.40
62926;BME280;55732;52.248;-0.844;2023-04-02T08:51:54;101784.61;;;8.71;65.21
62926;BME280;55732;52.248;-0.844;2023-04-02T08:54:24;101785.35;;;8.72;65.39
62926;BME280;55732;52.248;-0.844;2023-04-02T08:59:29;101780.79;;;8.79;64.23
62926;BME280;55732;52.248;-0.844;2023-04-02T09:05:04;101787.64;;;8.93;63.26
62926;BME280;55732;52.248;-0.844;2023-04-02T09:07:30;101783.83;;;9.18;64.36
62926;BME280;55732;52.248;-0.844;2023-04-02T09:09:58;101791.19;;;10.12;62.93
62926;BME280;55732;52.248;-0.844;2023-04-02T09:12:31;101795.19;;;10.10;62.12
62926;BME280;55732;52.248;-0.844;2023-04-02T09:17:35;101803.14;;;9.78;61.76
62926;BME280;55732;52.248;-0.844;2023-04-02T09:22:46;101808.89;;;10.00;60.10
62926;BME280;55732;52.248;-0.844;2023-04-02T09:25:18;101814.27;;;9.97;59.73
62926;BME280;55732;52.248;-0.844;2023-04-02T09:27:47;101817.30;;;9.83;61.57
62926;BME280;55732;52.248;-0.844;2023-04-02T09:33:10;101810.52;;;14.15;53.67
62926;BME280;55732;52.248;-0.844;2023-04-02T09:35:54;101808.86;;;15.83;48.21
62926;BME280;55732;52.248;-0.844;2023-04-02T09:38:23;101820.23;;;14.75;48.92
62926;BME280;55732;52.248;-0.844;2023-04-02T09:41:02;101823.33;;;13.57;51.92
62926;BME280;55732;52.248;-0.844;2023-04-02T09:43:37;101831.25;;;12.69;53.71
62926;BME280;55732;52.248;-0.844;2023-04-02T09:48:58;101831.91;;;11.66;56.75
62926;BME280;55732;52.248;-0.844;2023-04-02T09:51:32;101832.20;;;11.37;57.79
62926;BME280;55732;52.248;-0.844;2023-04-02T09:56:29;101844.45;;;11.00;58.73
62926;BME280;55732;52.248;-0.844;2023-04-02T09:59:12;101850.98;;;10.81;58.93
62926;BME280;55732;52.248;-0.844;2023-04-02T10:01:46;101856.86;;;10.66;58.72
62926;BME280;55732;52.248;-0.844;2023-04-02T10:04:43;101856.04;;;10.59;59.54
62926;BME280;55732;52.248;-0.844;2023-04-02T10:07:30;101861.48;;;10.59;59.18
62926;BME280;55732;52.248;-0.844;2023-04-02T10:10:46;101865.27;;;10.54;58.76
62926;BME280;55732;52.248;-0.844;2023-04-02T10:13:10;101867.03;;;10.45;59.38
62926;BME280;55732;52.248;-0.844;2023-04-02T10:15:56;101869.48;;;10.44;59.43
62926;BME280;55732;52.248;-0.844;2023-04-02T10:21:05;101866.66;;;10.36;59.36
62926;BME280;55732;52.248;-0.844;2023-04-02T10:23:31;101863.95;;;10.99;58.80
62926;BME280;55732;52.248;-0.844;2023-04-02T10:31:35;101864.13;;;12.59;53.56
62926;BME280;55732;52.248;-0.844;2023-04-02T10:34:13;101863.71;;;14.80;48.75
62926;BME280;55732;52.248;-0.844;2023-04-02T10:36:54;101861.81;;;16.30;46.10
62926;BME280;55732;52.248;-0.844;2023-04-02T10:39:51;101859.70;;;17.39;41.97
62926;BME280;55732;52.248;-0.844;2023-04-02T10:42:22;101862.77;;;17.91;40.66
62926;BME280;55732;52.248;-0.844;2023-04-02T10:47:54;101870.55;;;18.83;39.96
62926;BME280;55732;52.248;-0.844;2023-04-02T10:53:17;101889.25;;;17.19;41.95
62926;BME280;55732;52.248;-0.844;2023-04-02T10:55:48;101893.81;;;16.29;43.99
62926;BME280;55732;52.248;-0.844;2023-04-02T10:58:23;101893.44;;;15.64;45.79
62926;BME280;55732;52.248;-0.844;2023-04-02T11:00:54;101900.52;;;15.23;45.37
62926;BME280;55732;52.248;-0.844;2023-04-02T11:03:31;101904.80;;;14.59;45.68
62926;BME280;55732;52.248;-0.844;2023-04-02T11:06:10;101906.13;;;14.04;46.50
62926;BME280;55732;52.248;-0.844;2023-04-02T11:08:38;101907.39;;;13.77;46.35
62926;BME280;55732;52.248;-0.844;2023-04-02T11:14:02;101913.94;;;13.54;47.30
62926;BME280;55732;52.248;-0.844;2023-04-02T11:16:30;101914.36;;;13.41;47.03
62926;BME280;55732;52.248;-0.844;2023-04-02T11:21:46;101918.95;;;12.73;48.10
62926;BME280;55732;52.248;-0.844;2023-04-02T11:24:35;101914.67;;;12.54;48.21
62926;BME280;55732;52.248;-0.844;2023-04-02T11:27:15;101914.33;;;12.54;47.73
62926;BME280;55732;52.248;-0.844;2023-04-02T11:29:43;101919.32;;;12.58;48.32
62926;BME280;55732;52.248;-0.844;2023-04-02T11:42:43;101922.45;;;12.85;47.51
62926;BME280;55732;52.248;-0.844;2023-04-02T11:50:30;101924.27;;;12.74;48.55
62926;BME280;55732;52.248;-0.844;2023-04-02T11:53:04;101931.35;;;12.76;48.63
62926;BME280;55732;52.248;-0.844;2023-04-02T11:55:47;101937.52;;;12.73;47.55
62926;BME280;55732;52.248;-0.844;2023-04-02T11:58:44;101939.59;;;12.70;48.57
62926;BME280;55732;52.248;-0.844;2023-04-02T12:09:43;101954.06;;;12.27;48.73
62926;BME280;55732;52.248;-0.844;2023-04-02T12:12:31;101957.36;;;12.35;49.48
62926;BME280;55732;52.248;-0.844;2023-04-02T12:14:57;101955.55;;;12.60;49.32
62926;BME280;55732;52.248;-0.844;2023-04-02T12:17:38;101957.64;;;12.71;49.81
62926;BME280;55732;52.248;-0.844;2023-04-02T12:22:37;101968.63;;;12.46;49.23
62926;BME280;55732;52.248;-0.844;2023-04-02T12:25:18;101971.90;;;12.53;49.75
62926;BME280;55732;52.248;-0.844;2023-04-02T12:27:47;101979.84;;;12.79;50.15
62926;BME280;55732;52.248;-0.844;2023-04-02T12:30:22;101975.86;;;13.03;49.93
62926;BME280;55732;52.248;-0.844;2023-04-02T12:32:48;101985.48;;;13.25;49.85
62926;BME280;55732;52.248;-0.844;2023-04-02T12:35:29;101987.33;;;13.30;48.32
62926;BME280;55732;52.248;-0.844;2023-04-02T12:37:56;101994.38;;;13.28;48.15
62926;BME280;55732;52.248;-0.844;2023-04-02T12:40:22;101990.91;;;13.04;47.80
62926;BME280;55732;52.248;-0.844;2023-04-02T12:42:48;102000.37;;;12.82;48.84
62926;BME280;55732;52.248;-0.844;2023-04-02T12:45:26;101999.89;;;12.72;48.95
62926;BME280;55732;52.248;-0.844;2023-04-02T12:47:52;101996.82;;;12.41;48.44
62926;BME280;55732;52.248;-0.844;2023-04-02T12:50:19;101999.33;;;12.19;49.24
62926;BME280;55732;52.248;-0.844;2023-04-02T12:52:49;102002.21;;;12.22;49.35
62926;BME280;55732;52.248;-0.844;2023-04-02T12:55:23;102003.32;;;12.38;49.58
62926;BME280;55732;52.248;-0.844;2023-04-02T12:57:55;102014.20;;;12.33;49.83
62926;BME280;55732;52.248;-0.844;2023-04-02T13:03:14;102014.91;;;12.33;49.66
62926;BME280;55732;52.248;-0.844;2023-04-02T13:05:47;102011.23;;;12.48;48.75
62926;BME280;55732;52.248;-0.844;2023-04-02T13:08:46;102004.50;;;12.59;48.69
62926;BME280;55732;52.248;-0.844;2023-04-02T13:11:11;102004.56;;;12.78;49.21
62926;BME280;55732;52.248;-0.844;2023-04-02T13:13:38;102004.76;;;12.93;48.60
62926;BME280;55732;52.248;-0.844;2023-04-02T13:18:35;101997.98;;;13.04;48.87
62926;BME280;55732;52.248;-0.844;2023-04-02T13:21:03;102002.80;;;12.93;48.92
62926;BME280;55732;52.248;-0.844;2023-04-02T13:25:59;102010.94;;;12.66;48.72
62926;BME280;55732;52.248;-0.844;2023-04-02T13:28:25;102010.45;;;12.55;48.30
62926;BME280;55732;52.248;-0.844;2023-04-02T13:30:51;102008.23;;;12.60;49.20
62926;BME280;55732;52.248;-0.844;2023-04-02T13:33:17;102007.73;;;12.77;49.14
62926;BME280;55732;52.248;-0.844;2023-04-02T13:35:43;102012.38;;;12.67;48.33
62926;BME280;55732;52.248;-0.844;2023-04-02T13:38:08;102012.65;;;12.48;47.86
62926;BME280;55732;52.248;-0.844;2023-04-02T13:40:35;102003.68;;;12.39;48.47
62926;BME280;55732;52.248;-0.844;2023-04-02T13:43:04;102007.36;;;12.48;49.10
62926;BME280;55732;52.248;-0.844;2023-04-02T13:45:36;102008.39;;;12.34;48.15
62926;BME280;55732;52.248;-0.844;2023-04-02T13:48:02;102014.27;;;12.02;48.16
62926;BME280;55732;52.248;-0.844;2023-04-02T13:50:30;102016.37;;;11.90;47.96
62926;BME280;55732;52.248;-0.844;2023-04-02T13:52:58;102007.37;;;11.90;48.04
62926;BME280;55732;52.248;-0.844;2023-04-02T13:55:27;102004.81;;;11.97;48.97
62926;BME280;55732;52.248;-0.844;2023-04-02T13:57:55;102000.55;;;12.06;49.16
62926;BME280;55732;52.248;-0.844;2023-04-02T14:00:20;102003.30;;;12.12;49.12
62926;BME280;55732;52.248;-0.844;2023-04-02T14:02:50;102011.97;;;12.12;49.19
62926;BME280;55732;52.248;-0.844;2023-04-02T14:16:19;102017.17;;;11.37;50.85
62926;BME280;55732;52.248;-0.844;2023-04-02T14:19:26;102018.14;;;11.41;51.37
62926;BME280;55732;52.248;-0.844;2023-04-02T14:22:22;102015.55;;;11.65;50.95
62926;BME280;55732;52.248;-0.844;2023-04-02T14:31:05;102018.77;;;11.57;49.42
62926;BME280;55732;52.248;-0.844;2023-04-02T14:39:43;102016.69;;;11.88;49.97
62926;BME280;55732;52.248;-0.844;2023-04-02T14:42:16;102014.98;;;11.80;48.95
62926;BME280;55732;52.248;-0.844;2023-04-02T14:45:04;102019.99;;;11.66;49.67
62926;BME280;55732;52.248;-0.844;2023-04-02T14:47:46;102023.80;;;11.71;49.98
62926;BME280;55732;52.248;-0.844;2023-04-02T14:50:22;102030.52;;;11.82;49.65
62926;BME280;55732;52.248;-0.844;2023-04-02T14:52:56;102032.58;;;11.78;50.08
62926;BME280;55732;52.248;-0.844;2023-04-02T14:55:35;102030.67;;;11.62;49.68
62926;BME280;55732;52.248;-0.844;2023-04-02T14:58:08;102028.22;;;11.43;49.28
62926;BME280;55732;52.248;-0.844;2023-04-02T15:00:37;102021.86;;;11.42;49.71
62926;BME280;55732;52.248;-0.844;2023-04-02T15:03:22;102022.45;;;11.45;49.40
62926;BME280;55732;52.248;-0.844;2023-04-02T15:05:56;102020.55;;;11.48;50.01
62926;BME280;55732;52.248;-0.844;2023-04-02T15:08:28;102024.33;;;11.62;49.97
62926;BME280;55732;52.248;-0.844;2023-04-02T15:11:15;102030.23;;;11.67;50.16
62926;BME280;55732;52.248;-0.844;2023-04-02T15:16:24;102035.65;;;11.54;50.01
62926;BME280;55732;52.248;-0.844;2023-04-02T15:18:58;102033.57;;;11.37;50.03
62926;BME280;55732;52.248;-0.844;2023-04-02T15:30:05;102012.36;;;10.81;52.03
62926;BME280;55732;52.248;-0.844;2023-04-02T15:32:37;102024.69;;;10.89;52.00
62926;BME280;55732;52.248;-0.844;2023-04-02T15:43:35;102049.00;;;10.05;53.51
62926;BME280;55732;52.248;-0.844;2023-04-02T15:46:22;102045.96;;;9.96;53.26
62926;BME280;55732;52.248;-0.844;2023-04-02T15:48:53;102041.42;;;9.97;53.12
62926;BME280;55732;52.248;-0.844;2023-04-02T15:54:29;102035.36;;;10.00;53.01
62926;BME280;55732;52.248;-0.844;2023-04-02T16:10:59;102050.02;;;9.82;53.81
62926;BME280;55732;52.248;-0.844;2023-04-02T16:13:30;102053.77;;;9.85;54.03
62926;BME280;55732;52.248;-0.844;2023-04-02T16:16:04;102062.34;;;9.83;53.59
62926;BME280;55732;52.248;-0.844;2023-04-02T16:18:39;102064.02;;;9.79;53.51
62926;BME280;55732;52.248;-0.844;2023-04-02T16:21:06;102063.84;;;9.80;54.19
62926;BME280;55732;52.248;-0.844;2023-04-02T16:23:37;102062.81;;;9.74;53.65
62926;BME280;55732;52.248;-0.844;2023-04-02T16:29:02;102058.30;;;9.56;54.17
62926;BME280;55732;52.248;-0.844;2023-04-02T16:37:03;102069.88;;;9.49;53.57
62926;BME280;55732;52.248;-0.844;2023-04-02T16:53:43;102078.92;;;9.51;54.07
62926;BME280;55732;52.248;-0.844;2023-04-02T17:01:39;102091.96;;;9.33;54.05
62926;BME280;55732;52.248;-0.844;2023-04-02T17:07:08;102095.14;;;9.27;54.79
62926;BME280;55732;52.248;-0.844;2023-04-02T17:09:52;102095.66;;;9.21;53.58
62926;BME280;55732;52.248;-0.844;2023-04-02T17:12:30;102098.71;;;9.11;53.61
62926;BME280;55732;52.248;-0.844;2023-04-02T17:15:11;102101.91;;;9.00;53.73
62926;BME280;55732;52.248;-0.844;2023-04-02T17:17:39;102100.27;;;8.92;54.42
62926;BME280;55732;52.248;-0.844;2023-04-02T17:20:14;102097.52;;;8.89;54.41
62926;BME280;55732;52.248;-0.844;2023-04-02T17:22:41;102101.95;;;8.83;54.10
62926;BME280;55732;52.248;-0.844;2023-04-02T17:25:21;102104.02;;;8.77;54.33
62926;BME280;55732;52.248;-0.844;2023-04-02T17:27:54;102105.31;;;8.74;54.99
62926;BME280;55732;52.248;-0.844;2023-04-02T17:30:42;102110.86;;;8.70;55.71
62926;BME280;55732;52.248;-0.844;2023-04-02T17:33:13;102107.67;;;8.64;56.29